createdAt,value
2023-04-05T00:00:39.965Z,101916.44
2023-04-05T00:05:44.005Z,101923.19
2023-04-05T00:10:47.677Z,101916.63
2023-04-05T00:15:52.953Z,101913.41
2023-04-05T00:20:56.537Z,101909.31
2023-04-05T00:26:00.196Z,101903.13
2023-04-05T00:31:05.863Z,101910.47
2023-04-05T00:36:14.643Z,101907.84
2023-04-05T00:41:18.355Z,101913.34
2023-04-05T00:46:23.689Z,101899.25
2023-04-05T00:51:27.414Z,101907.03
2023-04-05T00:56:32.037Z,101915.34
2023-04-05T01:01:41.698Z,101900.69
2023-04-05T01:07:07.667Z,101915.97
2023-04-05T01:12:17.792Z,101911.53
2023-04-05T01:17:24.227Z,101909.78
2023-04-05T01:22:58.195Z,101913.22
2023-04-05T01:28:24.346Z,101918.50
2023-04-05T01:33:38.668Z,101922.75
2023-04-05T01:38:44.332Z,101909.97
2023-04-05T01:43:48.952Z,101910.91
2023-04-05T01:48:56.102Z,101903.16
2023-04-05T01:53:59.683Z,101901.69
2023-04-05T01:59:03.440Z,101899.22
2023-04-05T02:04:08.784Z,101901.03
2023-04-05T02:09:12.473Z,101886.38
2023-04-05T02:14:16.082Z,101887.22
2023-04-05T02:19:22.162Z,101879.38
2023-04-05T02:24:25.828Z,101881.13
2023-04-05T02:29:29.696Z,101881.16
2023-04-05T02:34:34.913Z,101879.44
2023-04-05T02:39:38.536Z,101883.78
2023-04-05T02:44:42.277Z,101895.94
2023-04-05T02:49:47.560Z,101892.47
2023-04-05T02:54:51.189Z,101895.97
2023-04-05T02:59:54.786Z,101887.28
2023-04-05T03:05:00.046Z,101882.91
2023-04-05T03:10:03.647Z,101887.28
2023-04-05T03:15:08.388Z,101885.50
2023-04-05T03:20:14.502Z,101877.69
2023-04-05T03:25:18.517Z,101887.28
2023-04-05T03:30:22.516Z,101898.53
2023-04-05T03:35:27.887Z,101901.16
2023-04-05T03:40:31.590Z,101911.56
2023-04-05T03:45:35.352Z,101910.72
2023-04-05T03:50:40.689Z,101917.69
2023-04-05T03:55:45.735Z,101918.56
2023-04-05T04:00:49.299Z,101917.66
2023-04-05T04:05:54.653Z,101922.81
2023-04-05T04:10:58.389Z,101924.59
2023-04-05T04:16:02.265Z,101943.69
2023-04-05T04:21:08.595Z,101937.56
2023-04-05T04:26:11.396Z,101953.22
2023-04-05T04:31:15.084Z,101965.41
2023-04-05T04:36:20.390Z,101967.13
2023-04-05T04:41:23.987Z,101969.72
2023-04-05T04:46:27.588Z,101977.56
2023-04-05T04:51:32.936Z,101981.94
2023-04-05T04:56:36.516Z,101971.47
2023-04-05T05:01:40.123Z,101969.72
2023-04-05T05:06:46.357Z,101970.59
2023-04-05T05:11:49.984Z,101968.88
2023-04-05T05:16:53.607Z,101956.75
2023-04-05T05:22:00.685Z,101960.22
2023-04-05T05:27:04.348Z,101972.38
2023-04-05T05:32:08.014Z,101966.25
2023-04-05T05:37:13.430Z,101953.25
2023-04-05T05:42:17.060Z,101955.00
2023-04-05T05:47:20.826Z,101956.72
2023-04-05T05:52:26.242Z,101955.00
2023-04-05T05:57:29.864Z,101954.97
2023-04-05T06:02:33.537Z,101943.72
2023-04-05T06:07:39.450Z,101947.19
2023-04-05T06:12:43.064Z,101941.94
2023-04-05T06:17:46.732Z,101946.31
2023-04-05T06:22:51.963Z,101948.06
2023-04-05T06:27:55.580Z,101948.91
2023-04-05T06:32:59.294Z,101944.56
2023-04-05T06:38:04.571Z,101959.34
2023-04-05T06:43:08.181Z,101951.50
2023-04-05T06:48:11.806Z,101949.78
2023-04-05T06:53:17.141Z,101944.53
2023-04-05T06:58:20.743Z,101946.31
2023-04-05T07:03:24.371Z,101941.97
2023-04-05T07:08:30.100Z,101949.75
2023-04-05T07:13:33.828Z,101954.97
2023-04-05T07:18:37.390Z,101948.00
2023-04-05T07:23:43.546Z,101951.47
2023-04-05T07:28:47.191Z,101962.75
2023-04-05T07:33:50.853Z,101970.53
2023-04-05T07:38:56.112Z,101979.97
2023-04-05T07:43:59.946Z,101972.91
2023-04-05T07:49:03.524Z,101976.38
2023-04-05T07:54:08.822Z,101974.50
2023-04-05T07:59:14.947Z,101974.31
2023-04-05T08:04:19.194Z,101974.31
2023-04-05T08:09:25.388Z,101972.56
2023-04-05T08:14:29.015Z,101975.03
2023-04-05T08:19:32.624Z,101976.66
2023-04-05T08:24:38.022Z,101969.63
2023-04-05T08:29:41.669Z,101982.53
2023-04-05T08:34:45.310Z,101981.66
2023-04-05T08:39:50.715Z,101981.63
2023-04-05T08:44:55.831Z,101973.69
2023-04-05T08:50:02.555Z,101974.44
2023-04-05T08:55:09.595Z,101978.78
2023-04-05T09:00:14.098Z,101965.66
2023-04-05T09:05:19.864Z,101964.78
2023-04-05T09:10:26.727Z,101958.72
2023-04-05T09:15:30.638Z,101963.84
2023-04-05T09:20:34.382Z,101956.84
2023-04-05T09:25:40.894Z,101945.66
2023-04-05T09:30:47.984Z,101950.00
2023-04-05T09:35:51.969Z,101953.41
2023-04-05T09:40:57.279Z,101946.38
2023-04-05T09:46:01.043Z,101949.84
2023-04-05T09:51:12.474Z,101941.13
2023-04-05T09:56:19.610Z,101929.81
2023-04-05T10:01:22.524Z,101928.91
2023-04-05T10:06:35.209Z,101926.28
2023-04-05T10:11:40.656Z,101921.94
2023-04-05T10:16:52.435Z,101923.56
2023-04-05T10:21:58.343Z,101914.00
2023-04-05T10:27:06.692Z,101922.63
2023-04-05T10:32:18.993Z,101916.56
2023-04-05T10:37:31.327Z,101911.41
2023-04-05T10:42:42.642Z,101907.06
2023-04-05T10:47:51.758Z,101905.25
2023-04-05T10:52:56.993Z,101896.50
2023-04-05T10:58:04.539Z,101894.78
2023-04-05T11:03:08.320Z,101897.34
2023-04-05T11:08:13.266Z,101903.38
2023-04-05T11:13:18.528Z,101904.25
2023-04-05T11:18:22.885Z,101893.78
2023-04-05T11:23:26.559Z,101899.63
2023-04-05T11:28:36.903Z,101902.06
2023-04-05T11:33:57.355Z,101908.09
2023-04-05T11:39:25.467Z,101906.53
2023-04-05T11:44:31.575Z,101905.50
2023-04-05T11:49:35.563Z,101901.94
2023-04-05T11:54:39.213Z,101902.66
2023-04-05T11:59:44.660Z,101911.38
2023-04-05T12:04:55.320Z,101908.66
2023-04-05T12:10:00.927Z,101924.88
2023-04-05T12:15:07.650Z,101923.94
2023-04-05T12:20:12.650Z,101922.94
2023-04-05T12:25:16.864Z,101915.13
2023-04-05T12:30:23.527Z,101913.19
2023-04-05T12:35:30.772Z,101921.06
2023-04-05T12:40:35.981Z,101919.22
2023-04-05T12:45:41.595Z,101924.38
2023-04-05T12:50:46.243Z,101925.25
2023-04-05T12:55:50.908Z,101921.78
2023-04-05T13:00:56.272Z,101931.06
2023-04-05T13:05:59.971Z,101937.69
2023-04-05T13:11:03.641Z,101938.72
2023-04-05T13:16:10.348Z,101927.22
2023-04-05T13:21:14.034Z,101934.13
2023-04-05T13:26:17.683Z,101942.91
2023-04-05T13:31:23.050Z,101939.31
2023-04-05T13:36:26.726Z,101946.06
2023-04-05T13:41:30.334Z,101949.50
2023-04-05T13:46:35.703Z,101947.81
2023-04-05T13:51:39.411Z,101944.09
2023-04-05T13:56:43.738Z,101946.06
2023-04-05T14:01:49.299Z,101949.47
2023-04-05T14:06:52.983Z,101951.31
2023-04-05T14:11:56.633Z,101961.88
2023-04-05T14:17:01.963Z,101962.66
2023-04-05T14:22:05.845Z,101967.47
2023-04-05T14:27:09.517Z,101975.84
2023-04-05T14:32:14.813Z,101981.38
2023-04-05T14:37:19.125Z,101984.22
2023-04-05T14:42:22.739Z,101996.13
2023-04-05T14:47:28.344Z,102001.16
2023-04-05T14:52:32.120Z,102015.63
2023-04-05T14:57:35.747Z,102021.59
2023-04-05T15:02:41.367Z,102020.69
2023-04-05T15:07:45.052Z,102019.19
2023-04-05T15:12:50.294Z,102014.03
2023-04-05T15:17:55.770Z,102027.09
2023-04-05T15:22:59.496Z,102023.69
2023-04-05T15:28:04.733Z,102032.44
2023-04-05T15:33:11.632Z,102035.84
2023-04-05T15:38:16.007Z,102034.78
2023-04-05T15:43:19.937Z,102025.88
2023-04-05T15:48:26.410Z,102022.22
2023-04-05T15:53:30.069Z,102027.56
2023-04-05T15:58:33.759Z,102027.84
2023-04-05T16:03:39.288Z,102024.00
2023-04-05T16:08:43.251Z,102024.25
2023-04-05T16:13:46.924Z,102022.22
2023-04-05T16:18:52.229Z,102017.59
2023-04-05T16:23:58.341Z,102031.69
2023-04-05T16:29:02.229Z,102029.19
2023-04-05T16:34:07.753Z,102026.31
2023-04-05T16:39:11.431Z,102030.13
2023-04-05T16:44:15.153Z,102039.50
2023-04-05T16:49:21.463Z,102035.25
2023-04-05T16:54:25.148Z,102037.75
2023-04-05T16:59:28.862Z,102049.59
2023-04-05T17:04:37.177Z,102046.69
2023-04-05T17:09:41.328Z,102051.84
2023-04-05T17:14:44.984Z,102049.19
2023-04-05T17:19:50.331Z,102045.53
2023-04-05T17:24:54.014Z,102048.34
2023-04-05T17:29:57.633Z,102042.44
2023-04-05T17:35:04.709Z,102049.25
2023-04-05T17:40:09.519Z,102047.56
2023-04-05T17:45:13.399Z,102037.22
2023-04-05T17:50:18.840Z,102031.47
2023-04-05T17:55:22.488Z,102032.19
2023-04-05T18:00:26.321Z,102030.66
2023-04-05T18:05:31.823Z,102032.84
2023-04-05T18:10:35.489Z,102036.41
2023-04-05T18:15:40.263Z,102033.91
2023-04-05T18:20:45.580Z,102019.00
2023-04-05T18:25:49.593Z,102023.00
2023-04-05T18:30:53.289Z,102025.63
2023-04-05T18:35:58.583Z,102032.66
2023-04-05T18:41:02.917Z,102033.28
2023-04-05T18:46:06.608Z,102039.06
2023-04-05T18:51:12.867Z,102038.72
2023-04-05T18:56:17.133Z,102035.13
2023-04-05T19:01:20.902Z,102029.53
2023-04-05T19:06:26.445Z,102037.50
2023-04-05T19:11:30.073Z,102029.06
2023-04-05T19:16:33.743Z,102026.94
2023-04-05T19:21:39.072Z,102024.53
2023-04-05T19:26:43.329Z,102021.00
2023-04-05T19:31:47.827Z,102026.13
2023-04-05T19:36:53.692Z,102014.59
2023-04-05T19:41:56.712Z,102012.56
2023-04-05T19:47:00.386Z,102001.75
2023-04-05T19:52:08.009Z,102010.84
2023-04-05T19:57:15.008Z,102003.25
2023-04-05T20:02:36.353Z,101997.56
2023-04-05T20:07:41.661Z,101998.84
2023-04-05T20:12:45.304Z,101993.72
2023-04-05T20:17:50.248Z,101997.38
2023-04-05T20:22:55.546Z,101989.19
2023-04-05T20:27:59.315Z,101988.00
2023-04-05T20:33:03.597Z,101988.56
2023-04-05T20:38:08.950Z,101986.94
2023-04-05T20:43:12.591Z,101986.94
2023-04-05T20:48:16.236Z,101988.66
2023-04-05T20:53:21.576Z,101976.38
2023-04-05T20:58:25.257Z,101972.00
2023-04-05T21:03:29.558Z,101979.06
2023-04-05T21:08:35.565Z,101967.31
2023-04-05T21:13:39.504Z,101965.13
2023-04-05T21:18:43.178Z,101964.69
2023-04-05T21:23:48.461Z,101950.41
2023-04-05T21:28:52.161Z,101953.66
2023-04-05T21:33:55.804Z,101943.56
2023-04-05T21:39:01.101Z,101942.97
2023-04-05T21:44:04.776Z,101942.38
2023-04-05T21:49:09.514Z,101938.03
2023-04-05T21:54:14.977Z,101942.38
2023-04-05T21:59:18.691Z,101939.47
2023-04-05T22:04:23.425Z,101926.28
2023-04-05T22:09:30.136Z,101918.66
2023-04-05T22:14:33.820Z,101913.66
2023-04-05T22:19:37.469Z,101912.19
2023-04-05T22:24:43.051Z,101905.56
2023-04-05T22:29:46.692Z,101896.53
2023-04-05T22:34:50.335Z,101899.28
2023-04-05T22:39:55.694Z,101894.31
2023-04-05T22:44:59.350Z,101888.78
2023-04-05T22:50:03.023Z,101882.16
2023-04-05T22:55:09.829Z,101869.50
2023-04-05T23:00:14.733Z,101863.63
2023-04-05T23:05:18.495Z,101857.81
2023-04-05T23:10:23.891Z,101865.78
2023-04-05T23:15:27.595Z,101849.91
2023-04-05T23:20:31.277Z,101853.75
2023-04-05T23:25:36.602Z,101846.75
2023-04-05T23:30:40.289Z,101846.56
2023-04-05T23:35:43.988Z,101849.13
2023-04-05T23:40:49.375Z,101844.47
2023-04-05T23:45:52.994Z,101836.47
2023-04-05T23:50:56.664Z,101837.94
2023-04-05T23:56:03.043Z,101825.03
